sensor_id;sensor_type;location;lat;lon;timestamp;P1;durP1;ratioP1;P2;durP2;ratioP2
77864;SDS011;67061;48.524;9.040;2024-01-15T00:01:32;16.63;;;6.50;;
77864;SDS011;67061;48.524;9.040;2024-01-15T00:03:59;15.65;;;6.30;;
77864;SDS011;67061;48.524;9.040;2024-01-15T00:06:26;18.42;;;7.43;;
77864;SDS011;67061;48.524;9.040;2024-01-15T00:08:53;18.65;;;7.10;;
77864;SDS011;67061;48.524;9.040;2024-01-15T00:11:20;18.30;;;8.15;;
77864;SDS011;67061;48.524;9.040;2024-01-15T00:13:47;16.63;;;6.35;;
77864;SDS011;67061;48.524;9.040;2024-01-15T00:16:15;19.33;;;8.93;;
77864;SDS011;67061;48.524;9.040;2024-01-15T00:18:42;16.67;;;6.85;;
77864;SDS011;67061;48.524;9.040;2024-01-15T00:21:09;18.63;;;7.38;;
77864;SDS011;67061;48.524;9.040;2024-01-15T00:23:36;19.88;;;8.85;;
77864;SDS011;67061;48.524;9.040;2024-01-15T00:26:05;18.40;;;7.22;;
77864;SDS011;67061;48.524;9.040;2024-01-15T00:28:32;16.75;;;6.28;;
77864;SDS011;67061;48.524;9.040;2024-01-15T00:30:59;17.17;;;7.25;;
77864;SDS011;67061;48.524;9.040;2024-01-15T00:33:27;18.00;;;8.30;;
77864;SDS011;67061;48.524;9.040;2024-01-15T00:35:54;17.60;;;6.70;;
77864;SDS011;67061;48.524;9.040;2024-01-15T00:38:21;16.50;;;6.45;;
77864;SDS011;67061;48.524;9.040;2024-01-15T00:40:48;18.48;;;6.20;;
77864;SDS011;67061;48.524;9.040;2024-01-15T00:43:15;17.55;;;8.25;;
77864;SDS011;67061;48.524;9.040;2024-01-15T00:45:43;17.85;;;6.30;;
77864;SDS011;67061;48.524;9.040;2024-01-15T00:48:10;16.73;;;7.28;;
77864;SDS011;67061;48.524;9.040;2024-01-15T00:50:38;17.42;;;6.78;;
77864;SDS011;67061;48.524;9.040;2024-01-15T00:53:06;17.35;;;6.80;;
77864;SDS011;67061;48.524;9.040;2024-01-15T00:55:32;13.95;;;6.18;;
77864;SDS011;67061;48.524;9.040;2024-01-15T00:57:59;20.23;;;7.28;;
77864;SDS011;67061;48.524;9.040;2024-01-15T01:00:26;16.63;;;6.60;;
77864;SDS011;67061;48.524;9.040;2024-01-15T01:02:53;14.98;;;6.97;;
77864;SDS011;67061;48.524;9.040;2024-01-15T01:05:20;16.25;;;6.40;;
77864;SDS011;67061;48.524;9.040;2024-01-15T01:07:48;18.42;;;6.63;;
77864;SDS011;67061;48.524;9.040;2024-01-15T01:10:15;17.75;;;7.25;;
77864;SDS011;67061;48.524;9.040;2024-01-15T01:12:43;18.23;;;6.80;;
77864;SDS011;67061;48.524;9.040;2024-01-15T01:15:10;16.90;;;6.05;;
77864;SDS011;67061;48.524;9.040;2024-01-15T01:17:37;18.65;;;7.32;;
77864;SDS011;67061;48.524;9.040;2024-01-15T01:20:04;15.27;;;6.05;;
77864;SDS011;67061;48.524;9.040;2024-01-15T01:22:33;15.77;;;6.50;;
77864;SDS011;67061;48.524;9.040;2024-01-15T01:25:01;16.25;;;7.22;;
77864;SDS011;67061;48.524;9.040;2024-01-15T01:27:29;15.80;;;5.32;;
77864;SDS011;67061;48.524;9.040;2024-01-15T01:29:56;16.17;;;6.13;;
77864;SDS011;67061;48.524;9.040;2024-01-15T01:32:23;13.85;;;6.10;;
77864;SDS011;67061;48.524;9.040;2024-01-15T01:34:50;14.35;;;6.65;;
77864;SDS011;67061;48.524;9.040;2024-01-15T01:37:17;15.63;;;6.97;;
77864;SDS011;67061;48.524;9.040;2024-01-15T01:39:44;15.55;;;5.72;;
77864;SDS011;67061;48.524;9.040;2024-01-15T01:42:13;15.40;;;6.47;;
77864;SDS011;67061;48.524;9.040;2024-01-15T01:44:40;17.08;;;5.75;;
77864;SDS011;67061;48.524;9.040;2024-01-15T01:47:07;17.65;;;6.32;;
77864;SDS011;67061;48.524;9.040;2024-01-15T01:49:34;18.95;;;6.38;;
77864;SDS011;67061;48.524;9.040;2024-01-15T01:52:03;15.90;;;6.60;;
77864;SDS011;67061;48.524;9.040;2024-01-15T01:54:31;15.15;;;6.28;;
77864;SDS011;67061;48.524;9.040;2024-01-15T01:56:59;14.60;;;6.28;;
77864;SDS011;67061;48.524;9.040;2024-01-15T01:59:29;19.63;;;7.00;;
77864;SDS011;67061;48.524;9.040;2024-01-15T02:04:26;14.63;;;5.95;;
77864;SDS011;67061;48.524;9.040;2024-01-15T02:06:54;14.52;;;5.63;;
77864;SDS011;67061;48.524;9.040;2024-01-15T02:09:21;15.43;;;6.85;;
77864;SDS011;67061;48.524;9.040;2024-01-15T02:11:48;13.70;;;5.50;;
77864;SDS011;67061;48.524;9.040;2024-01-15T02:14:15;15.55;;;5.03;;
77864;SDS011;67061;48.524;9.040;2024-01-15T02:16:44;14.45;;;5.88;;
77864;SDS011;67061;48.524;9.040;2024-01-15T02:19:14;15.18;;;5.82;;
77864;SDS011;67061;48.524;9.040;2024-01-15T02:21:42;13.38;;;5.38;;
77864;SDS011;67061;48.524;9.040;2024-01-15T02:24:10;17.77;;;6.20;;
77864;SDS011;67061;48.524;9.040;2024-01-15T02:26:37;16.25;;;5.93;;
77864;SDS011;67061;48.524;9.040;2024-01-15T02:29:04;14.13;;;5.38;;
77864;SDS011;67061;48.524;9.040;2024-01-15T02:31:33;13.35;;;6.03;;
77864;SDS011;67061;48.524;9.040;2024-01-15T02:34:00;13.63;;;5.55;;
77864;SDS011;67061;48.524;9.040;2024-01-15T02:36:27;12.93;;;5.15;;
77864;SDS011;67061;48.524;9.040;2024-01-15T02:38:53;14.98;;;5.35;;
77864;SDS011;67061;48.524;9.040;2024-01-15T02:41:22;14.02;;;5.63;;
77864;SDS011;67061;48.524;9.040;2024-01-15T02:43:49;13.60;;;5.70;;
77864;SDS011;67061;48.524;9.040;2024-01-15T02:46:15;11.65;;;5.20;;
77864;SDS011;67061;48.524;9.040;2024-01-15T02:48:43;13.73;;;4.95;;
77864;SDS011;67061;48.524;9.040;2024-01-15T02:51:10;12.68;;;4.80;;
77864;SDS011;67061;48.524;9.040;2024-01-15T02:53:37;14.88;;;4.53;;
77864;SDS011;67061;48.524;9.040;2024-01-15T02:56:04;12.23;;;4.35;;
77864;SDS011;67061;48.524;9.040;2024-01-15T02:58:32;15.25;;;5.47;;
77864;SDS011;67061;48.524;9.040;2024-01-15T03:00:59;13.00;;;4.80;;
77864;SDS011;67061;48.524;9.040;2024-01-15T03:03:26;13.75;;;5.00;;
77864;SDS011;67061;48.524;9.040;2024-01-15T03:05:53;13.30;;;5.55;;
77864;SDS011;67061;48.524;9.040;2024-01-15T03:08:20;14.93;;;5.47;;
77864;SDS011;67061;48.524;9.040;2024-01-15T03:10:47;13.55;;;3.95;;
77864;SDS011;67061;48.524;9.040;2024-01-15T03:13:14;13.50;;;4.53;;
77864;SDS011;67061;48.524;9.040;2024-01-15T03:15:43;13.27;;;4.95;;
77864;SDS011;67061;48.524;9.040;2024-01-15T03:18:10;14.48;;;5.35;;
77864;SDS011;67061;48.524;9.040;2024-01-15T03:20:37;14.00;;;5.95;;
77864;SDS011;67061;48.524;9.040;2024-01-15T03:23:04;15.07;;;5.50;;
77864;SDS011;67061;48.524;9.040;2024-01-15T03:25:31;13.18;;;4.35;;
77864;SDS011;67061;48.524;9.040;2024-01-15T03:27:57;15.07;;;5.10;;
77864;SDS011;67061;48.524;9.040;2024-01-15T03:30:24;16.30;;;5.57;;
77864;SDS011;67061;48.524;9.040;2024-01-15T03:32:53;15.77;;;5.35;;
77864;SDS011;67061;48.524;9.040;2024-01-15T03:35:20;16.38;;;5.57;;
77864;SDS011;67061;48.524;9.040;2024-01-15T03:37:47;18.88;;;6.57;;
77864;SDS011;67061;48.524;9.040;2024-01-15T03:40:14;14.95;;;5.60;;
77864;SDS011;67061;48.524;9.040;2024-01-15T03:42:41;17.55;;;5.97;;
77864;SDS011;67061;48.524;9.040;2024-01-15T03:45:07;15.82;;;4.97;;
77864;SDS011;67061;48.524;9.040;2024-01-15T03:47:35;15.15;;;5.10;;
77864;SDS011;67061;48.524;9.040;2024-01-15T03:50:03;16.20;;;5.55;;
77864;SDS011;67061;48.524;9.040;2024-01-15T03:52:31;13.25;;;5.30;;
77864;SDS011;67061;48.524;9.040;2024-01-15T03:54:58;14.88;;;5.38;;
77864;SDS011;67061;48.524;9.040;2024-01-15T03:57:25;16.13;;;5.53;;
77864;SDS011;67061;48.524;9.040;2024-01-15T03:59:52;14.82;;;5.60;;
77864;SDS011;67061;48.524;9.040;2024-01-15T04:02:19;15.45;;;6.07;;
77864;SDS011;67061;48.524;9.040;2024-01-15T04:04:46;14.55;;;5.38;;
77864;SDS011;67061;48.524;9.040;2024-01-15T04:07:14;15.57;;;5.30;;
77864;SDS011;67061;48.524;9.040;2024-01-15T04:09:41;15.90;;;5.50;;
77864;SDS011;67061;48.524;9.040;2024-01-15T04:12:08;15.30;;;6.82;;
77864;SDS011;67061;48.524;9.040;2024-01-15T04:14:35;16.50;;;5.55;;
77864;SDS011;67061;48.524;9.040;2024-01-15T04:17:02;16.50;;;6.03;;
77864;SDS011;67061;48.524;9.040;2024-01-15T04:19:29;14.98;;;5.05;;
77864;SDS011;67061;48.524;9.040;2024-01-15T04:21:56;16.00;;;6.05;;
77864;SDS011;67061;48.524;9.040;2024-01-15T04:24:24;14.85;;;6.20;;
77864;SDS011;67061;48.524;9.040;2024-01-15T04:26:51;15.55;;;5.07;;
77864;SDS011;67061;48.524;9.040;2024-01-15T04:29:18;14.90;;;5.53;;
77864;SDS011;67061;48.524;9.040;2024-01-15T04:31:45;15.55;;;5.55;;
77864;SDS011;67061;48.524;9.040;2024-01-15T04:34:11;15.98;;;5.55;;
77864;SDS011;67061;48.524;9.040;2024-01-15T04:36:39;14.90;;;5.10;;
77864;SDS011;67061;48.524;9.040;2024-01-15T04:39:06;15.68;;;5.95;;
77864;SDS011;67061;48.524;9.040;2024-01-15T04:41:34;15.55;;;5.82;;
77864;SDS011;67061;48.524;9.040;2024-01-15T04:44:01;15.82;;;5.05;;
77864;SDS011;67061;48.524;9.040;2024-01-15T04:46:29;14.63;;;4.95;;
77864;SDS011;67061;48.524;9.040;2024-01-15T04:48:55;13.45;;;6.50;;
77864;SDS011;67061;48.524;9.040;2024-01-15T04:51:22;14.60;;;5.80;;
77864;SDS011;67061;48.524;9.040;2024-01-15T04:53:49;15.15;;;6.30;;
77864;SDS011;67061;48.524;9.040;2024-01-15T04:56:16;14.10;;;5.00;;
77864;SDS011;67061;48.524;9.040;2024-01-15T04:58:44;16.48;;;7.25;;
77864;SDS011;67061;48.524;9.040;2024-01-15T05:01:11;13.20;;;6.07;;
77864;SDS011;67061;48.524;9.040;2024-01-15T05:03:38;15.57;;;6.15;;
77864;SDS011;67061;48.524;9.040;2024-01-15T05:06:05;15.93;;;5.60;;
77864;SDS011;67061;48.524;9.040;2024-01-15T05:08:33;17.00;;;6.38;;
77864;SDS011;67061;48.524;9.040;2024-01-15T05:11:00;16.35;;;6.13;;
77864;SDS011;67061;48.524;9.040;2024-01-15T05:13:27;15.73;;;6.30;;
77864;SDS011;67061;48.524;9.040;2024-01-15T05:15:55;18.17;;;7.20;;
77864;SDS011;67061;48.524;9.040;2024-01-15T05:18:22;14.80;;;6.22;;
77864;SDS011;67061;48.524;9.040;2024-01-15T05:20:49;14.95;;;5.88;;
77864;SDS011;67061;48.524;9.040;2024-01-15T05:23:17;18.20;;;6.63;;
77864;SDS011;67061;48.524;9.040;2024-01-15T05:25:44;20.27;;;8.38;;
77864;SDS011;67061;48.524;9.040;2024-01-15T05:28:11;19.50;;;6.80;;
77864;SDS011;67061;48.524;9.040;2024-01-15T05:30:38;18.83;;;6.78;;
77864;SDS011;67061;48.524;9.040;2024-01-15T05:33:06;17.17;;;7.20;;
77864;SDS011;67061;48.524;9.040;2024-01-15T05:35:33;17.20;;;6.65;;
77864;SDS011;67061;48.524;9.040;2024-01-15T05:38:00;17.83;;;7.10;;
77864;SDS011;67061;48.524;9.040;2024-01-15T05:40:28;16.48;;;6.35;;
77864;SDS011;67061;48.524;9.040;2024-01-15T05:42:54;14.52;;;5.38;;
77864;SDS011;67061;48.524;9.040;2024-01-15T05:45:21;16.98;;;7.13;;
77864;SDS011;67061;48.524;9.040;2024-01-15T05:47:48;15.80;;;5.35;;
77864;SDS011;67061;48.524;9.040;2024-01-15T05:50:17;19.70;;;7.13;;
77864;SDS011;67061;48.524;9.040;2024-01-15T05:52:44;15.50;;;6.85;;
77864;SDS011;67061;48.524;9.040;2024-01-15T05:55:11;18.80;;;6.53;;
77864;SDS011;67061;48.524;9.040;2024-01-15T05:57:37;15.95;;;6.28;;
77864;SDS011;67061;48.524;9.040;2024-01-15T06:00:05;16.30;;;6.50;;
77864;SDS011;67061;48.524;9.040;2024-01-15T06:02:34;17.20;;;6.40;;
77864;SDS011;67061;48.524;9.040;2024-01-15T06:05:00;13.98;;;6.18;;
77864;SDS011;67061;48.524;9.040;2024-01-15T06:07:29;17.30;;;5.80;;
77864;SDS011;67061;48.524;9.040;2024-01-15T06:09:56;14.60;;;6.22;;
77864;SDS011;67061;48.524;9.040;2024-01-15T06:12:23;15.77;;;6.38;;
77864;SDS011;67061;48.524;9.040;2024-01-15T06:14:50;17.55;;;6.22;;
77864;SDS011;67061;48.524;9.040;2024-01-15T06:17:17;14.80;;;5.93;;
77864;SDS011;67061;48.524;9.040;2024-01-15T06:19:44;15.60;;;6.47;;
77864;SDS011;67061;48.524;9.040;2024-01-15T06:22:11;16.17;;;6.32;;
77864;SDS011;67061;48.524;9.040;2024-01-15T06:24:39;14.73;;;6.40;;
77864;SDS011;67061;48.524;9.040;2024-01-15T06:27:06;16.75;;;7.40;;
77864;SDS011;67061;48.524;9.040;2024-01-15T06:29:33;16.58;;;6.10;;
77864;SDS011;67061;48.524;9.040;2024-01-15T06:32:03;18.58;;;6.32;;
77864;SDS011;67061;48.524;9.040;2024-01-15T06:34:31;14.27;;;6.70;;
77864;SDS011;67061;48.524;9.040;2024-01-15T06:36:58;15.75;;;6.57;;
77864;SDS011;67061;48.524;9.040;2024-01-15T06:39:24;17.20;;;7.05;;
77864;SDS011;67061;48.524;9.040;2024-01-15T06:41:53;13.13;;;6.53;;
77864;SDS011;67061;48.524;9.040;2024-01-15T06:44:20;15.88;;;6.68;;
77864;SDS011;67061;48.524;9.040;2024-01-15T06:46:47;16.90;;;6.82;;
77864;SDS011;67061;48.524;9.040;2024-01-15T06:49:14;14.32;;;6.03;;
77864;SDS011;67061;48.524;9.040;2024-01-15T06:51:41;16.50;;;6.25;;
77864;SDS011;67061;48.524;9.040;2024-01-15T06:54:07;14.25;;;5.63;;
77864;SDS011;67061;48.524;9.040;2024-01-15T06:56:34;14.23;;;6.38;;
77864;SDS011;67061;48.524;9.040;2024-01-15T06:59:03;14.88;;;6.18;;
77864;SDS011;67061;48.524;9.040;2024-01-15T07:01:30;15.35;;;5.93;;
77864;SDS011;67061;48.524;9.040;2024-01-15T07:03:56;15.30;;;6.25;;
77864;SDS011;67061;48.524;9.040;2024-01-15T07:06:23;12.85;;;5.30;;
77864;SDS011;67061;48.524;9.040;2024-01-15T07:08:50;18.00;;;5.97;;
77864;SDS011;67061;48.524;9.040;2024-01-15T07:11:17;14.75;;;6.20;;
77864;SDS011;67061;48.524;9.040;2024-01-15T07:13:44;11.82;;;5.35;;
77864;SDS011;67061;48.524;9.040;2024-01-15T07:16:12;16.40;;;6.53;;
77864;SDS011;67061;48.524;9.040;2024-01-15T07:18:39;12.70;;;5.82;;
77864;SDS011;67061;48.524;9.040;2024-01-15T07:21:06;16.48;;;6.13;;
77864;SDS011;67061;48.524;9.040;2024-01-15T07:23:33;13.77;;;4.88;;
77864;SDS011;67061;48.524;9.040;2024-01-15T07:26:00;14.63;;;5.50;;
77864;SDS011;67061;48.524;9.040;2024-01-15T07:28:28;12.98;;;5.20;;
77864;SDS011;67061;48.524;9.040;2024-01-15T07:30:56;14.10;;;5.25;;
77864;SDS011;67061;48.524;9.040;2024-01-15T07:33:26;13.70;;;5.82;;
77864;SDS011;67061;48.524;9.040;2024-01-15T07:35:53;12.35;;;5.93;;
77864;SDS011;67061;48.524;9.040;2024-01-15T07:38:20;14.95;;;5.82;;
77864;SDS011;67061;48.524;9.040;2024-01-15T07:40:48;16.05;;;5.40;;
77864;SDS011;67061;48.524;9.040;2024-01-15T07:43:14;14.85;;;5.57;;
77864;SDS011;67061;48.524;9.040;2024-01-15T07:45:43;15.55;;;5.22;;
77864;SDS011;67061;48.524;9.040;2024-01-15T07:48:10;13.02;;;5.75;;
77864;SDS011;67061;48.524;9.040;2024-01-15T07:50:38;16.80;;;6.10;;
77864;SDS011;67061;48.524;9.040;2024-01-15T07:53:05;12.93;;;5.80;;
77864;SDS011;67061;48.524;9.040;2024-01-15T07:55:32;14.50;;;6.35;;
77864;SDS011;67061;48.524;9.040;2024-01-15T07:57:59;12.82;;;5.35;;
77864;SDS011;67061;48.524;9.040;2024-01-15T08:00:27;13.88;;;5.38;;
77864;SDS011;67061;48.524;9.040;2024-01-15T08:02:53;13.77;;;5.82;;
77864;SDS011;67061;48.524;9.040;2024-01-15T08:05:20;12.38;;;4.75;;
77864;SDS011;67061;48.524;9.040;2024-01-15T08:07:49;13.73;;;6.70;;
77864;SDS011;67061;48.524;9.040;2024-01-15T08:10:15;9.98;;;4.70;;
77864;SDS011;67061;48.524;9.040;2024-01-15T08:12:42;12.13;;;5.05;;
77864;SDS011;67061;48.524;9.040;2024-01-15T08:15:09;12.30;;;5.22;;
77864;SDS011;67061;48.524;9.040;2024-01-15T08:17:36;10.77;;;4.80;;
77864;SDS011;67061;48.524;9.040;2024-01-15T08:20:04;10.90;;;4.30;;
77864;SDS011;67061;48.524;9.040;2024-01-15T08:22:31;11.27;;;4.82;;
77864;SDS011;67061;48.524;9.040;2024-01-15T08:24:59;10.38;;;4.90;;
77864;SDS011;67061;48.524;9.040;2024-01-15T08:27:26;12.55;;;4.68;;
77864;SDS011;67061;48.524;9.040;2024-01-15T08:29:53;8.80;;;4.13;;
77864;SDS011;67061;48.524;9.040;2024-01-15T08:32:20;13.00;;;5.38;;
77864;SDS011;67061;48.524;9.040;2024-01-15T08:34:47;12.68;;;5.28;;
77864;SDS011;67061;48.524;9.040;2024-01-15T08:37:17;10.02;;;3.95;;
77864;SDS011;67061;48.524;9.040;2024-01-15T08:39:44;9.85;;;3.88;;
77864;SDS011;67061;48.524;9.040;2024-01-15T08:42:13;9.98;;;4.05;;
77864;SDS011;67061;48.524;9.040;2024-01-15T08:44:40;9.60;;;3.45;;
77864;SDS011;67061;48.524;9.040;2024-01-15T08:47:08;9.88;;;4.13;;
77864;SDS011;67061;48.524;9.040;2024-01-15T08:49:36;10.75;;;4.07;;
77864;SDS011;67061;48.524;9.040;2024-01-15T08:52:03;8.27;;;3.58;;
77864;SDS011;67061;48.524;9.040;2024-01-15T08:54:30;7.53;;;3.92;;
77864;SDS011;67061;48.524;9.040;2024-01-15T08:56:57;8.25;;;3.88;;
77864;SDS011;67061;48.524;9.040;2024-01-15T08:59:26;10.48;;;4.85;;
77864;SDS011;67061;48.524;9.040;2024-01-15T09:01:53;9.73;;;4.30;;
77864;SDS011;67061;48.524;9.040;2024-01-15T09:04:22;8.85;;;4.07;;
77864;SDS011;67061;48.524;9.040;2024-01-15T09:06:49;10.75;;;4.50;;
77864;SDS011;67061;48.524;9.040;2024-01-15T09:09:16;8.15;;;3.50;;
77864;SDS011;67061;48.524;9.040;2024-01-15T09:11:44;9.02;;;4.40;;
77864;SDS011;67061;48.524;9.040;2024-01-15T09:14:12;9.10;;;3.17;;
77864;SDS011;67061;48.524;9.040;2024-01-15T09:16:40;8.48;;;3.35;;
77864;SDS011;67061;48.524;9.040;2024-01-15T09:19:07;7.80;;;3.58;;
77864;SDS011;67061;48.524;9.040;2024-01-15T09:21:34;7.72;;;3.58;;
77864;SDS011;67061;48.524;9.040;2024-01-15T09:24:01;11.82;;;3.80;;
77864;SDS011;67061;48.524;9.040;2024-01-15T09:26:28;8.13;;;3.50;;
77864;SDS011;67061;48.524;9.040;2024-01-15T09:28:55;7.47;;;3.35;;
77864;SDS011;67061;48.524;9.040;2024-01-15T09:31:23;9.23;;;3.60;;
77864;SDS011;67061;48.524;9.040;2024-01-15T09:33:51;10.02;;;3.63;;
77864;SDS011;67061;48.524;9.040;2024-01-15T09:36:21;7.22;;;3.28;;
77864;SDS011;67061;48.524;9.040;2024-01-15T09:38:48;7.47;;;3.75;;
77864;SDS011;67061;48.524;9.040;2024-01-15T09:41:16;11.45;;;3.47;;
77864;SDS011;67061;48.524;9.040;2024-01-15T09:43:43;10.63;;;3.47;;
77864;SDS011;67061;48.524;9.040;2024-01-15T09:46:11;9.57;;;3.70;;
77864;SDS011;67061;48.524;9.040;2024-01-15T09:48:38;6.65;;;3.22;;
77864;SDS011;67061;48.524;9.040;2024-01-15T09:51:06;11.63;;;3.33;;
77864;SDS011;67061;48.524;9.040;2024-01-15T09:53:34;8.30;;;2.90;;
77864;SDS011;67061;48.524;9.040;2024-01-15T09:56:03;6.10;;;2.53;;
77864;SDS011;67061;48.524;9.040;2024-01-15T09:58:31;7.95;;;3.03;;
77864;SDS011;67061;48.524;9.040;2024-01-15T10:00:59;8.50;;;2.38;;
77864;SDS011;67061;48.524;9.040;2024-01-15T10:03:28;5.95;;;2.22;;
77864;SDS011;67061;48.524;9.040;2024-01-15T10:05:55;4.93;;;2.42;;
77864;SDS011;67061;48.524;9.040;2024-01-15T10:08:26;6.70;;;1.98;;
77864;SDS011;67061;48.524;9.040;2024-01-15T10:10:54;5.75;;;3.33;;
77864;SDS011;67061;48.524;9.040;2024-01-15T10:13:20;10.20;;;1.85;;
77864;SDS011;67061;48.524;9.040;2024-01-15T10:15:49;6.38;;;2.00;;
77864;SDS011;67061;48.524;9.040;2024-01-15T10:18:16;8.50;;;1.75;;
77864;SDS011;67061;48.524;9.040;2024-01-15T10:20:43;5.03;;;1.85;;
77864;SDS011;67061;48.524;9.040;2024-01-15T10:23:10;6.45;;;2.20;;
77864;SDS011;67061;48.524;9.040;2024-01-15T10:25:39;6.22;;;2.17;;
77864;SDS011;67061;48.524;9.040;2024-01-15T10:28:08;10.85;;;2.85;;
77864;SDS011;67061;48.524;9.040;2024-01-15T10:30:35;4.00;;;2.17;;
77864;SDS011;67061;48.524;9.040;2024-01-15T10:33:02;6.95;;;2.33;;
77864;SDS011;67061;48.524;9.040;2024-01-15T10:35:30;6.78;;;2.35;;
77864;SDS011;67061;48.524;9.040;2024-01-15T10:37:58;5.90;;;2.45;;
77864;SDS011;67061;48.524;9.040;2024-01-15T10:40:26;5.30;;;1.95;;
77864;SDS011;67061;48.524;9.040;2024-01-15T10:42:54;5.65;;;2.22;;
77864;SDS011;67061;48.524;9.040;2024-01-15T10:45:22;7.15;;;2.45;;
77864;SDS011;67061;48.524;9.040;2024-01-15T10:47:49;7.40;;;2.38;;
77864;SDS011;67061;48.524;9.040;2024-01-15T10:50:16;7.32;;;2.70;;
77864;SDS011;67061;48.524;9.040;2024-01-15T10:52:43;3.83;;;1.88;;
77864;SDS011;67061;48.524;9.040;2024-01-15T10:55:10;5.40;;;1.95;;
77864;SDS011;67061;48.524;9.040;2024-01-15T10:57:38;4.63;;;1.95;;
77864;SDS011;67061;48.524;9.040;2024-01-15T11:00:07;6.75;;;2.45;;
77864;SDS011;67061;48.524;9.040;2024-01-15T11:02:40;5.22;;;1.73;;
77864;SDS011;67061;48.524;9.040;2024-01-15T11:05:08;6.00;;;2.15;;
77864;SDS011;67061;48.524;9.040;2024-01-15T11:07:35;4.45;;;2.22;;
77864;SDS011;67061;48.524;9.040;2024-01-15T11:10:03;8.27;;;2.67;;
77864;SDS011;67061;48.524;9.040;2024-01-15T11:12:30;3.88;;;2.10;;
77864;SDS011;67061;48.524;9.040;2024-01-15T11:15:02;7.88;;;2.10;;
77864;SDS011;67061;48.524;9.040;2024-01-15T11:17:57;6.68;;;2.42;;
77864;SDS011;67061;48.524;9.040;2024-01-15T11:22:52;3.72;;;1.70;;
77864;SDS011;67061;48.524;9.040;2024-01-15T11:25:22;5.20;;;2.20;;
77864;SDS011;67061;48.524;9.040;2024-01-15T11:27:50;4.32;;;1.65;;
77864;SDS011;67061;48.524;9.040;2024-01-15T11:30:20;6.82;;;2.50;;
77864;SDS011;67061;48.524;9.040;2024-01-15T11:32:53;7.72;;;2.47;;
77864;SDS011;67061;48.524;9.040;2024-01-15T11:35:20;5.63;;;1.98;;
77864;SDS011;67061;48.524;9.040;2024-01-15T11:37:57;4.50;;;2.28;;
77864;SDS011;67061;48.524;9.040;2024-01-15T11:40:36;5.25;;;2.15;;
77864;SDS011;67061;48.524;9.040;2024-01-15T11:43:05;5.60;;;1.90;;
77864;SDS011;67061;48.524;9.040;2024-01-15T11:45:34;4.72;;;1.92;;
77864;SDS011;67061;48.524;9.040;2024-01-15T11:48:13;4.85;;;2.05;;
77864;SDS011;67061;48.524;9.040;2024-01-15T11:50:41;6.05;;;2.35;;
77864;SDS011;67061;48.524;9.040;2024-01-15T11:53:21;5.68;;;2.42;;
77864;SDS011;67061;48.524;9.040;2024-01-15T11:55:57;6.72;;;2.33;;
77864;SDS011;67061;48.524;9.040;2024-01-15T11:58:25;5.82;;;2.45;;
77864;SDS011;67061;48.524;9.040;2024-01-15T12:00:52;5.07;;;2.28;;
77864;SDS011;67061;48.524;9.040;2024-01-15T12:03:21;5.28;;;2.25;;
77864;SDS011;67061;48.524;9.040;2024-01-15T12:05:48;3.92;;;1.88;;
77864;SDS011;67061;48.524;9.040;2024-01-15T12:08:20;6.70;;;2.42;;
77864;SDS011;67061;48.524;9.040;2024-01-15T12:10:48;6.20;;;2.90;;
77864;SDS011;67061;48.524;9.040;2024-01-15T12:13:15;5.50;;;2.78;;
77864;SDS011;67061;48.524;9.040;2024-01-15T12:15:43;6.32;;;2.53;;
77864;SDS011;67061;48.524;9.040;2024-01-15T12:18:11;6.63;;;2.83;;
77864;SDS011;67061;48.524;9.040;2024-01-15T12:20:40;7.32;;;2.22;;
77864;SDS011;67061;48.524;9.040;2024-01-15T12:23:09;4.82;;;2.25;;
77864;SDS011;67061;48.524;9.040;2024-01-15T12:25:36;6.88;;;2.75;;
77864;SDS011;67061;48.524;9.040;2024-01-15T12:28:04;5.93;;;2.63;;
77864;SDS011;67061;48.524;9.040;2024-01-15T12:30:33;6.35;;;2.78;;
77864;SDS011;67061;48.524;9.040;2024-01-15T12:33:01;5.72;;;2.45;;
77864;SDS011;67061;48.524;9.040;2024-01-15T12:35:29;5.78;;;2.53;;
77864;SDS011;67061;48.524;9.040;2024-01-15T12:37:59;5.50;;;2.10;;
77864;SDS011;67061;48.524;9.040;2024-01-15T12:40:27;5.53;;;2.17;;
77864;SDS011;67061;48.524;9.040;2024-01-15T12:42:54;6.22;;;2.90;;
77864;SDS011;67061;48.524;9.040;2024-01-15T12:45:21;6.35;;;2.90;;
77864;SDS011;67061;48.524;9.040;2024-01-15T12:47:48;7.60;;;3.28;;
77864;SDS011;67061;48.524;9.040;2024-01-15T12:50:16;5.97;;;2.42;;
77864;SDS011;67061;48.524;9.040;2024-01-15T12:52:43;7.38;;;3.35;;
77864;SDS011;67061;48.524;9.040;2024-01-15T12:55:12;7.22;;;4.18;;
77864;SDS011;67061;48.524;9.040;2024-01-15T12:57:39;6.38;;;3.20;;
77864;SDS011;67061;48.524;9.040;2024-01-15T13:00:06;6.82;;;3.40;;
77864;SDS011;67061;48.524;9.040;2024-01-15T13:02:37;6.90;;;2.78;;
77864;SDS011;67061;48.524;9.040;2024-01-15T13:05:05;8.18;;;3.03;;
77864;SDS011;67061;48.524;9.040;2024-01-15T13:07:33;6.93;;;3.38;;
77864;SDS011;67061;48.524;9.040;2024-01-15T13:10:00;7.53;;;3.15;;
77864;SDS011;67061;48.524;9.040;2024-01-15T13:12:29;7.63;;;2.90;;
77864;SDS011;67061;48.524;9.040;2024-01-15T13:14:57;9.18;;;4.03;;
77864;SDS011;67061;48.524;9.040;2024-01-15T13:17:24;10.27;;;4.22;;
77864;SDS011;67061;48.524;9.040;2024-01-15T13:19:51;9.57;;;3.50;;
77864;SDS011;67061;48.524;9.040;2024-01-15T13:22:18;7.53;;;3.78;;
77864;SDS011;67061;48.524;9.040;2024-01-15T13:24:45;9.27;;;4.28;;
77864;SDS011;67061;48.524;9.040;2024-01-15T13:27:12;8.82;;;3.55;;
77864;SDS011;67061;48.524;9.040;2024-01-15T13:29:40;8.82;;;4.43;;
77864;SDS011;67061;48.524;9.040;2024-01-15T13:32:08;9.00;;;4.20;;
77864;SDS011;67061;48.524;9.040;2024-01-15T13:34:38;8.82;;;4.55;;
77864;SDS011;67061;48.524;9.040;2024-01-15T13:37:06;9.35;;;4.75;;
77864;SDS011;67061;48.524;9.040;2024-01-15T13:39:35;9.13;;;4.18;;
77864;SDS011;67061;48.524;9.040;2024-01-15T13:42:02;8.63;;;4.53;;
77864;SDS011;67061;48.524;9.040;2024-01-15T13:44:29;9.73;;;4.28;;
77864;SDS011;67061;48.524;9.040;2024-01-15T13:46:57;10.45;;;4.10;;
77864;SDS011;67061;48.524;9.040;2024-01-15T13:49:24;7.55;;;3.80;;
77864;SDS011;67061;48.524;9.040;2024-01-15T13:51:51;9.63;;;4.32;;
77864;SDS011;67061;48.524;9.040;2024-01-15T13:54:18;9.98;;;4.40;;
77864;SDS011;67061;48.524;9.040;2024-01-15T13:56:45;8.50;;;4.30;;
77864;SDS011;67061;48.524;9.040;2024-01-15T13:59:13;9.07;;;4.47;;
77864;SDS011;67061;48.524;9.040;2024-01-15T14:01:40;11.18;;;4.40;;
77864;SDS011;67061;48.524;9.040;2024-01-15T14:04:09;8.75;;;4.45;;
77864;SDS011;67061;48.524;9.040;2024-01-15T14:06:36;9.25;;;4.85;;
77864;SDS011;67061;48.524;9.040;2024-01-15T14:09:04;11.48;;;4.85;;
77864;SDS011;67061;48.524;9.040;2024-01-15T14:11:35;10.68;;;5.00;;
77864;SDS011;67061;48.524;9.040;2024-01-15T14:14:02;10.30;;;4.43;;
77864;SDS011;67061;48.524;9.040;2024-01-15T14:16:29;9.32;;;3.83;;
77864;SDS011;67061;48.524;9.040;2024-01-15T14:18:55;9.65;;;4.43;;
77864;SDS011;67061;48.524;9.040;2024-01-15T14:21:24;8.63;;;4.13;;
77864;SDS011;67061;48.524;9.040;2024-01-15T14:23:51;8.93;;;4.63;;
77864;SDS011;67061;48.524;9.040;2024-01-15T14:26:18;9.95;;;4.68;;
77864;SDS011;67061;48.524;9.040;2024-01-15T14:28:45;12.18;;;4.60;;
77864;SDS011;67061;48.524;9.040;2024-01-15T14:31:13;12.18;;;4.97;;
77864;SDS011;67061;48.524;9.040;2024-01-15T14:33:40;11.27;;;4.47;;
77864;SDS011;67061;48.524;9.040;2024-01-15T14:36:07;11.10;;;4.38;;
77864;SDS011;67061;48.524;9.040;2024-01-15T14:38:35;12.10;;;4.70;;
77864;SDS011;67061;48.524;9.040;2024-01-15T14:41:02;11.15;;;5.63;;
77864;SDS011;67061;48.524;9.040;2024-01-15T14:43:30;11.38;;;4.95;;
77864;SDS011;67061;48.524;9.040;2024-01-15T14:45:58;8.48;;;4.20;;